createdAt,value
2022-09-12T00:01:17.846Z,67.82
2022-09-12T00:03:45.795Z,67.94
2022-09-12T00:06:23.067Z,68.13
2022-09-12T00:08:54.631Z,68.36
2022-09-12T00:11:23.218Z,68.45
2022-09-12T00:13:50.992Z,68.47
2022-09-12T00:16:25.039Z,68.49
2022-09-12T00:18:53.714Z,68.48
2022-09-12T00:21:23.210Z,68.61
2022-09-12T00:23:51.585Z,68.59
2022-09-12T00:26:21.091Z,68.74
2022-09-12T00:28:49.786Z,68.87
2022-09-12T00:31:20.213Z,68.99
2022-09-12T00:33:48.112Z,68.99
2022-09-12T00:36:21.682Z,69.07
2022-09-12T00:38:50.985Z,68.95
2022-09-12T00:41:20.497Z,68.98
2022-09-12T00:43:52.048Z,68.96
2022-09-12T00:46:36.504Z,68.90
2022-09-12T00:49:24.739Z,69.10
2022-09-12T00:51:59.254Z,69.23
2022-09-12T00:54:30.813Z,69.17
2022-09-12T00:57:03.184Z,69.42
2022-09-12T01:00:01.939Z,69.61
2022-09-12T01:02:32.296Z,69.77
2022-09-12T01:05:00.591Z,69.77
2022-09-12T01:07:29.344Z,69.82
2022-09-12T01:09:57.239Z,69.81
2022-09-12T01:12:25.931Z,70.09
2022-09-12T01:14:53.642Z,70.11
2022-09-12T01:17:21.888Z,70.04
2022-09-12T01:20:11.442Z,70.12
2022-09-12T01:23:15.130Z,70.25
2022-09-12T01:25:59.477Z,70.22
2022-09-12T01:28:27.454Z,70.40
2022-09-12T01:31:38.801Z,70.35
2022-09-12T01:34:23.263Z,70.51
2022-09-12T01:37:04.840Z,70.60
2022-09-12T01:40:04.382Z,70.68
2022-09-12T01:42:47.250Z,70.73
2022-09-12T01:45:32.179Z,70.68
2022-09-12T01:48:11.129Z,70.51
2022-09-12T01:50:54.662Z,70.61
2022-09-12T01:53:36.860Z,70.64
2022-09-12T01:56:13.351Z,70.79
2022-09-12T01:58:56.452Z,70.91
2022-09-12T02:01:29.795Z,70.82
2022-09-12T02:04:00.487Z,70.90
2022-09-12T02:06:36.844Z,71.16
2022-09-12T02:09:11.195Z,71.07
2022-09-12T02:11:43.541Z,71.10
2022-09-12T02:14:28.821Z,71.14
2022-09-12T02:17:11.944Z,71.22
2022-09-12T02:20:06.207Z,71.23
2022-09-12T02:22:37.475Z,71.29
2022-09-12T02:25:09.523Z,71.63
2022-09-12T02:27:42.613Z,71.74
2022-09-12T02:30:12.955Z,71.71
2022-09-12T02:32:59.121Z,71.95
2022-09-12T02:35:45.243Z,71.80
2022-09-12T02:38:19.233Z,71.78
2022-09-12T02:40:47.186Z,71.86
2022-09-12T02:43:15.077Z,71.97
2022-09-12T02:45:43.063Z,72.10
2022-09-12T02:48:13.269Z,72.14
2022-09-12T02:50:42.273Z,72.35
2022-09-12T02:53:11.402Z,72.28
2022-09-12T02:55:41.300Z,72.41
2022-09-12T02:58:17.449Z,72.53
2022-09-12T03:00:54.545Z,72.70
2022-09-12T03:03:43.423Z,72.54
2022-09-12T03:06:23.647Z,72.66
2022-09-12T03:09:00.350Z,72.84
2022-09-12T03:11:40.392Z,72.88
2022-09-12T03:14:30.204Z,72.81
2022-09-12T03:17:19.076Z,72.82
2022-09-12T03:20:10.895Z,72.67
2022-09-12T03:22:51.034Z,72.60
2022-09-12T03:25:25.157Z,72.74
2022-09-12T03:28:12.265Z,72.88
2022-09-12T03:30:42.652Z,72.82
2022-09-12T03:33:15.702Z,72.69
2022-09-12T03:35:43.866Z,72.84
2022-09-12T03:38:11.868Z,72.78
2022-09-12T03:40:40.116Z,72.84
2022-09-12T03:43:09.418Z,72.68
2022-09-12T03:45:37.657Z,72.75
2022-09-12T03:48:06.397Z,72.63
2022-09-12T03:50:34.519Z,72.73
2022-09-12T03:53:03.523Z,72.74
2022-09-12T03:55:31.437Z,72.86
2022-09-12T03:57:59.511Z,72.86
2022-09-12T04:00:27.487Z,72.69
2022-09-12T04:02:57.204Z,72.75
2022-09-12T04:05:26.094Z,72.79
2022-09-12T04:07:54.167Z,72.79
2022-09-12T04:10:22.764Z,72.97
2022-09-12T04:12:51.660Z,72.92
2022-09-12T04:15:19.521Z,73.02
2022-09-12T04:17:47.245Z,73.06
2022-09-12T04:20:15.592Z,73.24
2022-09-12T04:22:43.341Z,73.12
2022-09-12T04:25:11.830Z,73.19
2022-09-12T04:27:40.008Z,73.52
2022-09-12T04:30:09.001Z,73.84
2022-09-12T04:32:36.869Z,73.98
2022-09-12T04:35:05.171Z,74.11
2022-09-12T04:37:32.915Z,74.51
2022-09-12T04:40:00.718Z,74.61
2022-09-12T04:42:29.851Z,74.56
2022-09-12T04:44:57.836Z,74.57
2022-09-12T04:47:25.579Z,74.49
2022-09-12T04:49:54.116Z,74.41
2022-09-12T04:52:21.991Z,74.43
2022-09-12T04:54:49.712Z,74.44
2022-09-12T04:57:17.438Z,74.47
2022-09-12T04:59:45.179Z,74.48
2022-09-12T05:02:13.103Z,74.47
2022-09-12T05:04:40.852Z,74.47
2022-09-12T05:07:08.593Z,74.20
2022-09-12T05:09:36.313Z,74.22
2022-09-12T05:12:05.848Z,74.35
2022-09-12T05:14:34.848Z,74.29
2022-09-12T05:17:04.649Z,74.40
2022-09-12T05:19:33.065Z,74.42
2022-09-12T05:22:00.853Z,74.41
2022-09-12T05:24:29.030Z,74.45
2022-09-12T05:26:56.890Z,74.27
2022-09-12T05:29:25.686Z,74.33
2022-09-12T05:31:53.964Z,74.28
2022-09-12T05:34:22.418Z,74.56
2022-09-12T05:36:50.228Z,74.38
2022-09-12T05:39:18.720Z,74.40
2022-09-12T05:41:47.698Z,74.50
2022-09-12T05:44:15.878Z,74.42
2022-09-12T05:46:46.719Z,74.18
2022-09-12T05:49:14.729Z,74.14
2022-09-12T05:51:45.361Z,74.22
2022-09-12T05:54:15.849Z,74.34
2022-09-12T05:56:44.793Z,74.35
2022-09-12T05:59:19.654Z,74.32
2022-09-12T06:01:48.856Z,74.34
2022-09-12T06:04:17.881Z,74.51
2022-09-12T06:06:46.413Z,74.64
2022-09-12T06:09:16.944Z,74.89
2022-09-12T06:11:46.367Z,74.86
2022-09-12T06:14:17.862Z,75.10
2022-09-12T06:16:47.414Z,75.25
2022-09-12T06:19:27.776Z,75.36
2022-09-12T06:21:55.580Z,75.16
2022-09-12T06:24:23.395Z,75.32
2022-09-12T06:26:52.919Z,75.21
2022-09-12T06:29:22.177Z,75.08
2022-09-12T06:31:50.045Z,75.17
2022-09-12T06:34:17.814Z,75.23
2022-09-12T06:36:47.945Z,75.71
2022-09-12T06:39:18.681Z,75.64
2022-09-12T06:41:48.495Z,75.83
2022-09-12T06:44:19.532Z,75.73
2022-09-12T06:46:48.022Z,75.98
2022-09-12T06:49:16.003Z,75.71
2022-09-12T06:51:44.694Z,76.02
2022-09-12T06:54:14.300Z,75.99
2022-09-12T06:56:42.413Z,76.03
2022-09-12T06:59:10.342Z,76.05
2022-09-12T07:01:38.390Z,76.02
2022-09-12T07:04:06.213Z,75.77
2022-09-12T07:06:40.715Z,75.52
2022-09-12T07:09:12.723Z,75.78
2022-09-12T07:11:42.485Z,75.84
2022-09-12T07:14:13.235Z,75.97
2022-09-12T07:16:41.266Z,76.00
2022-09-12T07:19:10.093Z,76.10
2022-09-12T07:21:40.459Z,75.63
2022-09-12T07:24:10.881Z,75.63
2022-09-12T07:26:40.696Z,75.67
2022-09-12T07:32:02.625Z,75.79
2022-09-12T07:34:30.429Z,75.66
2022-09-12T07:36:58.862Z,75.44
2022-09-12T07:39:26.604Z,75.48
2022-09-12T07:41:55.006Z,75.38
2022-09-12T07:44:23.095Z,75.03
2022-09-12T07:46:50.901Z,75.00
2022-09-12T07:49:18.626Z,75.01
2022-09-12T07:51:46.381Z,75.01
2022-09-12T07:54:14.157Z,75.08
2022-09-12T07:56:41.951Z,75.12
2022-09-12T07:59:09.709Z,74.83
2022-09-12T08:01:37.650Z,74.58
2022-09-12T08:04:05.951Z,74.62
2022-09-12T08:06:36.250Z,74.98
2022-09-12T08:09:05.803Z,74.75
2022-09-12T08:11:34.932Z,75.00
2022-09-12T08:14:05.819Z,75.12
2022-09-12T08:16:35.670Z,75.20
2022-09-12T08:19:04.350Z,75.12
2022-09-12T08:21:33.236Z,74.86
2022-09-12T08:24:04.292Z,74.66
2022-09-12T08:26:34.811Z,74.55
2022-09-12T08:29:02.584Z,74.37
2022-09-12T08:31:37.119Z,74.50
2022-09-12T08:34:06.612Z,74.53
2022-09-12T08:36:35.694Z,74.58
2022-09-12T08:39:06.980Z,74.71
2022-09-12T08:41:41.380Z,74.61
2022-09-12T08:44:27.997Z,74.45
2022-09-12T08:46:58.379Z,74.33
2022-09-12T08:49:42.445Z,74.21
2022-09-12T08:52:23.241Z,74.21
2022-09-12T08:54:51.480Z,74.17
2022-09-12T08:57:19.289Z,74.10
2022-09-12T08:59:48.485Z,73.83
2022-09-12T09:02:22.412Z,73.61
2022-09-12T09:04:56.812Z,73.67
2022-09-12T09:07:25.997Z,73.48
2022-09-12T09:10:19.606Z,73.57
2022-09-12T09:13:00.922Z,73.29
2022-09-12T09:15:41.270Z,72.84
2022-09-12T09:18:32.195Z,72.56
2022-09-12T09:21:06.322Z,72.54
2022-09-12T09:23:40.395Z,72.85
2022-09-12T09:26:14.920Z,72.75
2022-09-12T09:28:49.559Z,72.55
2022-09-12T09:31:19.838Z,72.41
2022-09-12T09:33:55.224Z,72.36
2022-09-12T09:36:41.490Z,72.09
2022-09-12T09:39:34.648Z,72.15
2022-09-12T09:42:27.183Z,72.07
2022-09-12T09:45:00.354Z,71.64
2022-09-12T09:47:28.469Z,70.93
2022-09-12T09:49:56.204Z,70.92
2022-09-12T09:52:30.962Z,71.24
2022-09-12T09:55:01.891Z,71.04
2022-09-12T09:57:35.819Z,70.74
2022-09-12T10:00:27.241Z,70.82
2022-09-12T10:03:13.803Z,70.98
2022-09-12T10:05:49.089Z,70.67
2022-09-12T10:08:26.386Z,70.71
2022-09-12T10:11:27.148Z,70.89
2022-09-12T10:13:57.171Z,70.91
2022-09-12T10:16:49.102Z,70.63
2022-09-12T10:19:26.138Z,70.76
2022-09-12T10:21:56.304Z,70.71
2022-09-12T10:24:47.312Z,70.41
2022-09-12T10:27:20.578Z,70.60
2022-09-12T10:30:18.330Z,70.70
2022-09-12T10:32:52.450Z,71.03
2022-09-12T10:35:22.407Z,71.10
2022-09-12T10:38:02.650Z,71.11
2022-09-12T10:40:40.070Z,70.83
2022-09-12T10:43:42.404Z,70.74
2022-09-12T10:46:19.430Z,70.55
2022-09-12T10:48:49.362Z,70.34
2022-09-12T10:51:26.245Z,70.48
2022-09-12T10:54:05.812Z,70.58
2022-09-12T10:56:43.651Z,70.45
2022-09-12T10:59:38.874Z,70.47
2022-09-12T11:02:21.879Z,70.13
2022-09-12T11:05:11.946Z,70.02
2022-09-12T11:07:46.916Z,69.93
2022-09-12T11:10:54.500Z,70.21
2022-09-12T11:13:55.886Z,69.87
2022-09-12T11:16:48.350Z,69.72
2022-09-12T11:19:41.323Z,69.63
2022-09-12T11:22:21.845Z,69.80
2022-09-12T11:25:14.585Z,69.39
2022-09-12T11:27:48.271Z,69.29
2022-09-12T11:30:18.109Z,69.06
2022-09-12T11:33:09.310Z,69.14
2022-09-12T11:35:49.792Z,69.40
2022-09-12T11:38:23.924Z,69.05
2022-09-12T11:41:14.569Z,69.24
2022-09-12T11:43:49.021Z,68.83
2022-09-12T11:46:32.531Z,68.88
2022-09-12T11:49:09.189Z,68.77
2022-09-12T11:51:46.576Z,68.86
2022-09-12T11:54:32.869Z,68.92
2022-09-12T11:57:12.894Z,68.95
2022-09-12T11:59:47.896Z,69.05
2022-09-12T12:02:29.760Z,69.15
2022-09-12T12:05:24.222Z,68.92
2022-09-12T12:07:59.662Z,69.08
2022-09-12T12:10:38.497Z,69.04
2022-09-12T12:13:15.318Z,68.79
2022-09-12T12:15:50.560Z,68.64
2022-09-12T12:18:29.323Z,68.58
2022-09-12T12:21:21.338Z,68.29
2022-09-12T12:24:07.101Z,68.34
2022-09-12T12:26:40.751Z,68.66
2022-09-12T12:29:17.798Z,68.54
2022-09-12T12:32:03.977Z,68.56
2022-09-12T12:34:38.188Z,68.17
2022-09-12T12:37:19.387Z,68.18
2022-09-12T12:40:01.406Z,68.15
2022-09-12T12:42:32.723Z,68.09
2022-09-12T12:45:03.922Z,67.79
2022-09-12T12:47:39.415Z,67.83
2022-09-12T12:50:10.098Z,67.68
2022-09-12T12:52:54.863Z,67.78
2022-09-12T12:55:31.305Z,67.67
2022-09-12T12:58:01.394Z,67.50
2022-09-12T13:00:36.222Z,67.34
2022-09-12T13:03:06.754Z,67.47
2022-09-12T13:05:57.558Z,67.64
2022-09-12T13:08:31.601Z,67.31
2022-09-12T13:11:03.216Z,67.42
2022-09-12T13:13:38.865Z,67.49
2022-09-12T13:16:09.477Z,67.46
2022-09-12T13:18:40.545Z,67.62
2022-09-12T13:21:12.978Z,67.48
2022-09-12T13:23:42.039Z,67.29
2022-09-12T13:26:23.294Z,66.96
2022-09-12T13:29:08.576Z,67.00
2022-09-12T13:31:37.520Z,67.18
2022-09-12T13:34:08.139Z,66.83
2022-09-12T13:37:13.315Z,66.43
2022-09-12T13:40:12.347Z,66.72
2022-09-12T13:42:53.876Z,66.72
2022-09-12T13:45:24.885Z,66.16
2022-09-12T13:47:58.979Z,66.06
2022-09-12T13:50:31.976Z,66.07
2022-09-12T13:53:03.919Z,66.14
2022-09-12T13:55:39.647Z,66.14
2022-09-12T13:58:21.546Z,66.23
2022-09-12T14:01:12.077Z,66.24
2022-09-12T14:04:01.686Z,66.32
2022-09-12T14:06:46.651Z,66.36
2022-09-12T14:09:24.958Z,65.79
2022-09-12T14:11:53.792Z,65.80
2022-09-12T14:14:34.455Z,65.20
2022-09-12T14:17:31.641Z,64.88
2022-09-12T14:20:03.789Z,65.16
2022-09-12T14:22:34.043Z,64.82
2022-09-12T14:25:02.830Z,64.83
2022-09-12T14:27:45.757Z,64.78
2022-09-12T14:30:27.227Z,64.50
2022-09-12T14:33:10.421Z,64.50
2022-09-12T14:35:49.686Z,64.32
2022-09-12T14:38:22.563Z,64.38
2022-09-12T14:41:10.858Z,64.12
2022-09-12T14:43:44.294Z,64.68
2022-09-12T14:46:21.767Z,64.58
2022-09-12T14:48:54.286Z,64.36
2022-09-12T14:51:32.470Z,63.54
2022-09-12T14:54:00.858Z,63.57
2022-09-12T14:56:43.974Z,63.13
2022-09-12T14:59:33.631Z,63.15
2022-09-12T15:02:13.687Z,63.47
2022-09-12T15:04:44.458Z,63.30
2022-09-12T15:07:32.614Z,63.38
2022-09-12T15:10:16.929Z,63.69
2022-09-12T15:12:45.195Z,63.28
2022-09-12T15:15:14.686Z,62.90
2022-09-12T15:17:42.520Z,63.10
2022-09-12T15:20:11.044Z,63.17
2022-09-12T15:22:40.501Z,62.99
2022-09-12T15:25:10.817Z,63.30
2022-09-12T15:27:40.939Z,63.64
2022-09-12T15:30:10.463Z,63.99
2022-09-12T15:32:38.407Z,63.87
2022-09-12T15:35:19.673Z,63.56
2022-09-12T15:37:48.810Z,63.76
2022-09-12T15:40:17.560Z,63.96
2022-09-12T15:42:45.424Z,64.10
2022-09-12T15:45:24.503Z,64.66
2022-09-12T15:47:52.194Z,65.11
2022-09-12T15:50:20.185Z,65.33
2022-09-12T15:52:48.105Z,65.73
2022-09-12T15:55:22.535Z,65.95
2022-09-12T15:57:50.562Z,65.91
2022-09-12T16:00:18.887Z,66.30
2022-09-12T16:02:50.143Z,65.97
2022-09-12T16:05:25.149Z,66.60
2022-09-12T16:07:54.713Z,66.97
2022-09-12T16:41:55.607Z,74.27
2022-09-12T16:44:23.310Z,73.71
2022-09-12T16:46:51.186Z,73.30
2022-09-12T16:49:18.969Z,73.19
2022-09-12T16:51:47.696Z,72.39
2022-09-12T16:54:15.861Z,72.40
2022-09-12T16:56:43.905Z,72.19
2022-09-12T16:59:16.186Z,71.72
2022-09-12T17:01:45.296Z,71.64
2022-09-12T17:04:13.256Z,71.63
2022-09-12T17:06:42.058Z,71.32
2022-09-12T17:09:11.555Z,71.39
2022-09-12T17:11:39.636Z,71.43
2022-09-12T17:14:09.060Z,71.15
2022-09-12T17:16:50.794Z,71.02
2022-09-12T17:19:23.339Z,70.77
2022-09-12T17:21:51.141Z,70.39
2022-09-12T17:24:20.377Z,70.44
2022-09-12T17:26:48.230Z,70.22
2022-09-12T17:29:16.844Z,70.74
2022-09-12T17:31:45.459Z,70.91
2022-09-12T17:34:14.687Z,70.75
2022-09-12T17:36:48.334Z,70.15
2022-09-12T17:39:16.401Z,69.85
2022-09-12T17:41:45.805Z,69.82
2022-09-12T17:45:27.492Z,69.76
2022-09-12T17:47:55.236Z,69.99
2022-09-12T17:50:39.496Z,70.10
2022-09-12T17:53:08.968Z,69.93
2022-09-12T17:55:39.488Z,69.95
2022-09-12T17:58:07.939Z,69.54
2022-09-12T18:00:54.658Z,69.50
2022-09-12T18:03:23.344Z,69.50
2022-09-12T18:05:55.995Z,69.50
2022-09-12T18:08:24.588Z,69.26
2022-09-12T18:10:52.784Z,69.09
2022-09-12T18:13:20.448Z,69.08
2022-09-12T18:15:48.149Z,69.15
2022-09-12T18:18:15.920Z,69.27
2022-09-12T18:20:50.490Z,69.26
2022-09-12T18:23:18.188Z,69.29
2022-09-12T18:25:45.829Z,68.96
2022-09-12T18:28:13.533Z,69.14
2022-09-12T18:30:41.532Z,69.15
2022-09-12T18:33:09.230Z,69.37
2022-09-12T18:35:38.636Z,69.51
2022-09-12T18:38:06.309Z,69.76
2022-09-12T18:40:33.974Z,69.84
2022-09-12T18:43:01.644Z,69.90
2022-09-12T18:45:29.380Z,69.70
2022-09-12T18:47:57.968Z,69.85
2022-09-12T18:50:25.781Z,69.58
2022-09-12T18:52:57.828Z,69.53
2022-09-12T18:55:27.500Z,69.24
2022-09-12T18:57:55.633Z,69.19
2022-09-12T19:00:23.312Z,69.27
2022-09-12T19:02:51.031Z,69.41
2022-09-12T19:05:18.714Z,69.45
2022-09-12T19:07:46.429Z,69.69
2022-09-12T19:10:14.147Z,69.67
2022-09-12T19:12:41.835Z,69.81
2022-09-12T19:15:09.849Z,69.69
2022-09-12T19:17:37.636Z,69.81
2022-09-12T19:20:06.022Z,69.53
2022-09-12T19:22:33.885Z,69.40
2022-09-12T19:25:01.608Z,69.61
2022-09-12T19:27:29.264Z,69.57
2022-09-12T19:29:57.237Z,69.93
2022-09-12T19:32:24.903Z,69.86
2022-09-12T19:34:52.576Z,69.83
2022-09-12T19:37:20.251Z,70.26
2022-09-12T19:39:47.964Z,70.47
2022-09-12T19:42:15.690Z,70.34
2022-09-12T19:44:43.616Z,70.50
2022-09-12T19:47:11.388Z,70.53
2022-09-12T19:49:39.052Z,70.22
2022-09-12T19:52:06.724Z,70.35
2022-09-12T19:55:19.884Z,70.23
2022-09-12T19:57:47.641Z,70.72
2022-09-12T20:00:15.539Z,70.86
2022-09-12T20:02:43.391Z,70.53
2022-09-12T20:05:12.111Z,70.38
2022-09-12T20:07:40.219Z,70.13
2022-09-12T20:10:08.592Z,70.30
2022-09-12T20:12:36.563Z,70.39
2022-09-12T20:15:05.393Z,70.80
2022-09-12T20:17:34.866Z,71.05
2022-09-12T20:20:04.195Z,71.52
2022-09-12T20:22:36.763Z,71.51
2022-09-12T20:25:08.143Z,71.18
2022-09-12T20:27:36.581Z,70.82
2022-09-12T20:30:05.487Z,70.64
2022-09-12T20:32:34.045Z,70.86
2022-09-12T20:35:02.742Z,71.24
2022-09-12T20:37:31.221Z,71.51
2022-09-12T20:39:59.404Z,71.71
2022-09-12T20:42:29.517Z,71.36
2022-09-12T20:44:57.388Z,71.42
2022-09-12T20:47:25.701Z,71.58
2022-09-12T20:49:55.393Z,71.59
2022-09-12T20:52:23.521Z,71.81
2022-09-12T20:54:52.304Z,71.70
2022-09-12T20:57:20.135Z,71.73
2022-09-12T20:59:48.301Z,71.74
2022-09-12T21:02:16.558Z,71.51
2022-09-12T21:04:44.668Z,71.75
2022-09-12T21:07:12.450Z,71.72
2022-09-12T21:09:40.211Z,71.33
2022-09-12T21:12:08.121Z,71.36
2022-09-12T21:14:36.012Z,71.25
2022-09-12T21:17:05.353Z,71.01
2022-09-12T21:22:41.097Z,70.88
2022-09-12T21:25:09.175Z,70.74
2022-09-12T21:27:37.291Z,70.77
2022-09-12T21:30:06.243Z,71.06
2022-09-12T21:32:37.065Z,71.38
2022-09-12T21:35:06.084Z,71.36
2022-09-12T21:37:35.181Z,71.08
2022-09-12T21:40:03.554Z,71.27
2022-09-12T21:42:31.953Z,71.38
2022-09-12T21:44:59.757Z,71.63
2022-09-12T21:47:27.532Z,71.78
2022-09-12T21:49:55.969Z,71.26
2022-09-12T21:52:23.838Z,71.44
2022-09-12T21:54:51.933Z,71.63
2022-09-12T21:57:19.785Z,71.75
2022-09-12T21:59:47.655Z,71.76
2022-09-12T22:02:16.094Z,72.01
2022-09-12T22:04:44.116Z,72.22
2022-09-12T22:07:12.651Z,72.58
2022-09-12T22:09:40.676Z,72.27
2022-09-12T22:12:08.852Z,72.30
2022-09-12T22:14:37.136Z,71.83
2022-09-12T22:17:05.954Z,71.94
2022-09-12T22:19:34.433Z,71.60
2022-09-12T22:22:20.936Z,71.64
2022-09-12T22:24:48.742Z,71.77
2022-09-12T22:27:17.191Z,71.72
2022-09-12T22:29:46.159Z,71.74
2022-09-12T22:32:14.036Z,71.45
2022-09-12T22:34:41.901Z,71.66
2022-09-12T22:37:12.131Z,71.89
2022-09-12T22:39:40.765Z,72.05
2022-09-12T22:42:09.845Z,71.98
2022-09-12T22:44:37.634Z,72.00
2022-09-12T22:47:05.586Z,71.96
2022-09-12T22:49:33.553Z,71.81
2022-09-12T22:52:01.500Z,71.77
2022-09-12T22:54:29.790Z,71.38
2022-09-12T22:56:57.571Z,71.26
2022-09-12T22:59:25.361Z,71.29
2022-09-12T23:01:53.188Z,71.68
2022-09-12T23:04:21.149Z,71.67
2022-09-12T23:06:49.546Z,71.55
2022-09-12T23:09:17.415Z,71.62
2022-09-12T23:11:46.124Z,71.51
2022-09-12T23:14:14.206Z,71.57
2022-09-12T23:16:42.053Z,71.73
2022-09-12T23:19:10.002Z,71.95
2022-09-12T23:21:37.775Z,72.18
2022-09-12T23:24:05.576Z,72.16
2022-09-12T23:26:34.152Z,72.22
2022-09-12T23:29:02.729Z,72.44
2022-09-12T23:31:32.609Z,72.61
2022-09-12T23:34:03.279Z,72.50
2022-09-12T23:36:31.882Z,72.53
2022-09-12T23:39:00.029Z,72.22
2022-09-12T23:41:28.126Z,72.48
2022-09-12T23:43:56.222Z,72.32
2022-09-12T23:46:24.645Z,72.22
2022-09-12T23:48:53.515Z,72.09
2022-09-12T23:51:22.190Z,72.42
2022-09-12T23:53:50.048Z,72.51
2022-09-12T23:56:18.146Z,72.45
2022-09-12T23:58:46.133Z,72.15
